createdAt,value
2017-10-24T00:00:03.921Z,8.75
2017-10-24T00:01:13.414Z,8.72
2017-10-24T00:02:22.877Z,8.72
2017-10-24T00:03:32.861Z,8.76
2017-10-24T00:04:42.360Z,8.81
2017-10-24T00:05:52.116Z,8.96
2017-10-24T00:07:01.358Z,9.07
2017-10-24T00:08:10.820Z,9.15
2017-10-24T00:09:20.321Z,9.25
2017-10-24T00:10:29.847Z,9.31
2017-10-24T00:11:39.393Z,9.36
2017-10-24T00:12:48.306Z,9.39
2017-10-24T00:13:58.413Z,9.40
2017-10-24T00:15:07.943Z,9.40
2017-10-24T00:16:17.581Z,9.42
2017-10-24T00:17:26.826Z,9.47
2017-10-24T00:18:35.844Z,9.52
2017-10-24T00:19:45.793Z,9.52
2017-10-24T00:20:55.312Z,9.48
2017-10-24T00:22:04.846Z,9.50
2017-10-24T00:23:13.865Z,9.51
2017-10-24T00:24:23.920Z,9.52
2017-10-24T00:25:33.349Z,9.51
2017-10-24T00:26:43.048Z,9.50
2017-10-24T00:27:51.808Z,9.50
2017-10-24T00:29:01.312Z,9.52
2017-10-24T00:30:11.295Z,9.52
2017-10-24T00:31:20.331Z,9.51
2017-10-24T00:32:29.905Z,9.52
2017-10-24T00:33:39.304Z,9.52
2017-10-24T00:34:49.447Z,9.52
2017-10-24T00:35:58.829Z,9.50
2017-10-24T00:37:08.331Z,9.50
2017-10-24T00:38:17.314Z,9.52
2017-10-24T00:39:26.956Z,9.52
2017-10-24T00:40:36.343Z,9.53
2017-10-24T00:41:45.840Z,9.56
2017-10-24T00:42:55.314Z,9.55
2017-10-24T00:44:05.486Z,9.56
2017-10-24T00:45:14.840Z,9.60
2017-10-24T00:46:24.042Z,9.61
2017-10-24T00:47:33.899Z,9.63
2017-10-24T00:48:43.432Z,9.64
2017-10-24T00:49:52.935Z,9.65
2017-10-24T00:51:01.895Z,9.67
2017-10-24T00:52:11.919Z,9.68
2017-10-24T00:53:21.422Z,9.67
2017-10-24T00:54:30.956Z,9.67
2017-10-24T00:55:40.593Z,9.68
2017-10-24T00:56:49.356Z,9.68
2017-10-24T00:57:59.442Z,9.68
2017-10-24T00:59:08.899Z,9.68
2017-10-24T01:00:18.428Z,9.68
2017-10-24T01:01:27.977Z,9.68
2017-10-24T01:02:37.898Z,9.68
2017-10-24T01:03:46.991Z,9.68
2017-10-24T01:04:56.446Z,9.68
2017-10-24T01:06:07.082Z,9.68
2017-10-24T01:07:15.519Z,9.67
2017-10-24T01:08:24.934Z,9.68
2017-10-24T01:09:33.916Z,9.67
2017-10-24T01:10:43.922Z,9.65
2017-10-24T01:11:53.446Z,9.64
2017-10-24T01:13:02.517Z,9.64
2017-10-24T01:14:11.938Z,9.63
2017-10-24T01:15:21.503Z,9.60
2017-10-24T01:16:31.567Z,9.60
2017-10-24T01:17:40.977Z,9.60
2017-10-24T01:18:50.511Z,9.60
2017-10-24T01:20:00.114Z,9.60
2017-10-24T01:21:09.581Z,9.56
2017-10-24T01:22:18.494Z,9.55
2017-10-24T01:23:27.979Z,9.52
2017-10-24T01:24:37.997Z,9.51
2017-10-24T01:25:47.519Z,9.50
2017-10-24T01:26:57.015Z,9.52
2017-10-24T01:28:06.485Z,9.53
2017-10-24T01:29:15.506Z,9.56
2017-10-24T01:30:25.167Z,9.60
2017-10-24T01:31:35.054Z,9.61
2017-10-24T01:32:44.496Z,9.63
2017-10-24T01:33:54.004Z,9.65
2017-10-24T01:35:03.525Z,9.67
2017-10-24T01:36:12.558Z,9.68
2017-10-24T01:37:22.071Z,9.68
2017-10-24T01:38:31.676Z,9.69
2017-10-24T01:39:41.542Z,9.71
2017-10-24T01:40:51.255Z,9.71
2017-10-24T01:42:00.142Z,9.69
2017-10-24T01:43:09.519Z,9.72
2017-10-24T01:44:19.022Z,9.72
2017-10-24T01:45:28.539Z,9.72
2017-10-24T01:46:38.056Z,9.72
2017-10-24T01:47:47.538Z,9.72
2017-10-24T01:48:57.067Z,9.73
2017-10-24T01:50:06.542Z,9.72
2017-10-24T01:51:16.063Z,9.72
2017-10-24T01:52:25.545Z,9.72
2017-10-24T01:53:35.086Z,9.72
2017-10-24T01:54:44.558Z,9.72
2017-10-24T01:55:54.078Z,9.72
2017-10-24T01:57:03.590Z,9.72
2017-10-24T01:58:13.066Z,9.75
2017-10-24T01:59:22.573Z,9.72
2017-10-24T02:00:32.075Z,9.73
2017-10-24T02:01:41.619Z,9.73
2017-10-24T02:02:51.100Z,9.73
2017-10-24T02:04:01.246Z,9.77
2017-10-24T02:05:10.262Z,9.77
2017-10-24T02:06:19.732Z,9.79
2017-10-24T02:07:29.142Z,9.81
2017-10-24T02:08:38.625Z,9.81
2017-10-24T02:09:48.132Z,9.84
2017-10-24T02:10:57.765Z,9.82
2017-10-24T02:12:07.676Z,9.82
2017-10-24T02:13:17.206Z,9.82
2017-10-24T02:14:26.164Z,9.82
2017-10-24T02:15:35.679Z,9.82
2017-10-24T02:16:45.203Z,9.81
2017-10-24T02:17:54.713Z,9.81
2017-10-24T02:19:04.204Z,9.81
2017-10-24T02:20:14.696Z,9.81
2017-10-24T02:21:23.833Z,9.80
2017-10-24T02:22:32.901Z,9.77
2017-10-24T02:23:42.776Z,9.77
2017-10-24T02:24:51.738Z,9.75
2017-10-24T02:26:01.771Z,9.72
2017-10-24T02:27:11.266Z,9.72
2017-10-24T02:28:20.361Z,9.69
2017-10-24T02:29:30.326Z,9.69
2017-10-24T02:30:39.284Z,9.68
2017-10-24T02:31:50.017Z,9.68
2017-10-24T02:32:58.817Z,9.68
2017-10-24T02:34:07.823Z,9.67
2017-10-24T02:35:17.876Z,9.68
2017-10-24T02:36:26.876Z,9.68
2017-10-24T02:37:36.933Z,9.69
2017-10-24T02:38:46.363Z,9.72
2017-10-24T02:39:55.896Z,9.77
2017-10-24T02:41:05.609Z,9.81
2017-10-24T02:42:14.384Z,9.81
2017-10-24T02:43:24.559Z,9.84
2017-10-24T02:44:33.916Z,9.84
2017-10-24T02:45:43.446Z,9.85
2017-10-24T02:46:52.992Z,9.86
2017-10-24T02:48:02.580Z,9.89
2017-10-24T02:49:12.038Z,9.89
2017-10-24T02:50:21.564Z,9.89
2017-10-24T02:51:30.599Z,9.90
2017-10-24T02:52:40.524Z,9.89
2017-10-24T02:53:50.060Z,9.89
2017-10-24T02:54:59.022Z,9.88
2017-10-24T02:56:08.975Z,9.89
2017-10-24T02:57:18.209Z,9.90
2017-10-24T02:58:27.565Z,9.93
2017-10-24T02:59:37.097Z,9.94
2017-10-24T03:00:46.621Z,9.97
2017-10-24T03:01:56.118Z,9.96
2017-10-24T03:03:06.104Z,9.96
2017-10-24T03:04:15.215Z,9.97
2017-10-24T03:05:24.641Z,10.00
2017-10-24T03:06:34.188Z,10.00
2017-10-24T03:07:43.701Z,10.00
2017-10-24T03:08:53.665Z,10.02
2017-10-24T03:10:02.766Z,10.02
2017-10-24T03:11:12.219Z,10.02
2017-10-24T03:12:21.723Z,10.06
2017-10-24T03:13:31.220Z,10.07
2017-10-24T03:14:41.296Z,10.10
2017-10-24T03:15:50.901Z,10.13
2017-10-24T03:17:00.373Z,10.18
2017-10-24T03:18:09.888Z,10.22
2017-10-24T03:19:19.418Z,10.26
2017-10-24T03:20:29.326Z,10.28
2017-10-24T03:21:38.409Z,10.31
2017-10-24T03:22:47.984Z,10.34
2017-10-24T03:23:57.437Z,10.35
2017-10-24T03:25:06.967Z,10.39
2017-10-24T03:26:16.518Z,10.42
2017-10-24T03:27:26.103Z,10.43
2017-10-24T03:28:35.566Z,10.46
2017-10-24T03:29:44.513Z,10.48
2017-10-24T03:30:54.701Z,10.48
2017-10-24T03:32:04.165Z,10.50
2017-10-24T03:33:13.088Z,10.50
2017-10-24T03:34:23.210Z,10.52
2017-10-24T03:35:32.646Z,10.55
2017-10-24T03:36:42.190Z,10.53
2017-10-24T03:37:51.702Z,10.56
2017-10-24T03:39:00.822Z,10.56
2017-10-24T03:40:10.761Z,10.56
2017-10-24T03:41:20.330Z,10.56
2017-10-24T03:42:29.793Z,10.57
2017-10-24T03:43:39.352Z,10.57
2017-10-24T03:44:48.575Z,10.60
2017-10-24T03:45:57.900Z,10.60
2017-10-24T03:47:07.450Z,10.60
2017-10-24T03:48:17.442Z,10.61
2017-10-24T03:49:26.493Z,10.63
2017-10-24T03:50:36.030Z,10.64
2017-10-24T03:51:45.557Z,10.64
2017-10-24T03:52:55.595Z,10.64
2017-10-24T03:54:05.124Z,10.64
2017-10-24T03:55:14.221Z,10.64
2017-10-24T03:56:24.369Z,10.65
2017-10-24T03:57:33.279Z,10.67
2017-10-24T03:58:42.733Z,10.68
2017-10-24T03:59:52.782Z,10.69
2017-10-24T04:01:02.410Z,10.69
2017-10-24T04:02:11.853Z,10.69
2017-10-24T04:03:20.861Z,10.68
2017-10-24T04:04:30.875Z,10.67
2017-10-24T04:05:39.914Z,10.68
2017-10-24T04:06:49.988Z,10.67
2017-10-24T04:07:58.982Z,10.65
2017-10-24T04:09:08.509Z,10.65
2017-10-24T04:10:18.042Z,10.64
2017-10-24T04:11:27.600Z,10.67
2017-10-24T04:12:37.120Z,10.64
2017-10-24T04:13:46.634Z,10.65
2017-10-24T04:14:56.673Z,10.65
2017-10-24T04:16:06.208Z,10.67
2017-10-24T04:17:15.251Z,10.67
2017-10-24T04:18:24.754Z,10.65
2017-10-24T04:19:34.283Z,10.67
2017-10-24T04:20:44.404Z,10.68
2017-10-24T04:21:53.359Z,10.68
2017-10-24T04:23:02.858Z,10.68
2017-10-24T04:24:12.916Z,10.68
2017-10-24T04:25:22.011Z,10.69
2017-10-24T04:26:31.470Z,10.68
2017-10-24T04:27:40.961Z,10.68
2017-10-24T04:28:50.982Z,10.68
2017-10-24T04:30:00.510Z,10.68
2017-10-24T04:31:10.100Z,10.69
2017-10-24T04:32:19.138Z,10.71
2017-10-24T04:33:29.161Z,10.69
2017-10-24T04:34:38.127Z,10.69
2017-10-24T04:35:48.220Z,10.69
2017-10-24T04:36:57.210Z,10.69
2017-10-24T04:38:06.770Z,10.72
2017-10-24T04:39:16.741Z,10.72
2017-10-24T04:40:26.342Z,10.73
2017-10-24T04:41:35.361Z,10.71
2017-10-24T04:42:44.825Z,10.72
2017-10-24T04:43:54.347Z,10.72
2017-10-24T04:45:03.951Z,10.72
2017-10-24T04:46:13.902Z,10.72
2017-10-24T04:47:22.952Z,10.72
2017-10-24T04:48:32.965Z,10.72
2017-10-24T04:49:42.558Z,10.72
2017-10-24T04:50:51.604Z,10.72
2017-10-24T04:52:01.574Z,10.72
2017-10-24T04:53:11.075Z,10.72
2017-10-24T04:54:20.607Z,10.72
2017-10-24T04:55:30.136Z,10.73
2017-10-24T04:56:39.175Z,10.73
2017-10-24T04:57:49.169Z,10.73
2017-10-24T04:58:58.697Z,10.75
2017-10-24T05:00:07.746Z,10.75
2017-10-24T05:01:17.266Z,10.75
2017-10-24T05:02:26.806Z,10.76
2017-10-24T05:03:36.412Z,10.76
2017-10-24T05:04:45.864Z,10.75
2017-10-24T05:05:55.363Z,10.76
2017-10-24T05:07:04.912Z,10.75
2017-10-24T05:08:14.457Z,10.76
2017-10-24T05:09:23.935Z,10.77
2017-10-24T05:10:33.519Z,10.77
2017-10-24T05:11:43.049Z,10.79
2017-10-24T05:12:53.108Z,10.77
2017-10-24T05:14:02.113Z,10.77
2017-10-24T05:15:12.563Z,10.77
2017-10-24T05:16:21.172Z,10.77
2017-10-24T05:17:30.651Z,10.77
2017-10-24T05:18:40.232Z,10.79
2017-10-24T05:19:49.762Z,10.77
2017-10-24T05:20:59.704Z,10.77
2017-10-24T05:22:09.334Z,10.79
2017-10-24T05:23:18.352Z,10.79
2017-10-24T05:24:27.883Z,10.77
2017-10-24T05:25:37.415Z,10.77
2017-10-24T05:26:46.849Z,10.77
2017-10-24T05:27:56.401Z,10.79
2017-10-24T05:29:05.897Z,10.79
2017-10-24T05:30:15.411Z,10.80
2017-10-24T05:31:24.964Z,10.79
2017-10-24T05:32:34.978Z,10.79
2017-10-24T05:33:43.988Z,10.79
2017-10-24T05:34:53.661Z,10.77
2017-10-24T05:36:03.040Z,10.79
2017-10-24T05:37:12.562Z,10.77
2017-10-24T05:38:22.404Z,10.77
2017-10-24T05:39:31.618Z,10.79
2017-10-24T05:40:41.145Z,10.79
2017-10-24T05:41:50.664Z,10.81
2017-10-24T05:43:00.528Z,10.81
2017-10-24T05:44:09.705Z,10.80
2017-10-24T05:45:19.238Z,10.81
2017-10-24T05:46:28.833Z,10.81
2017-10-24T05:47:38.265Z,10.81
2017-10-24T05:48:48.807Z,10.82
2017-10-24T05:49:57.349Z,10.82
2017-10-24T05:51:06.956Z,10.82
2017-10-24T05:52:16.409Z,10.81
2017-10-24T05:53:25.955Z,10.82
2017-10-24T05:54:35.468Z,10.85
2017-10-24T05:55:45.415Z,10.84
2017-10-24T05:56:54.531Z,10.86
2017-10-24T05:58:03.963Z,10.88
2017-10-24T05:59:13.675Z,10.86
2017-10-24T06:00:22.998Z,10.86
2017-10-24T06:01:32.521Z,10.88
2017-10-24T06:02:42.043Z,10.88
2017-10-24T06:03:51.588Z,10.86
2017-10-24T06:05:01.144Z,10.88
2017-10-24T06:06:10.615Z,10.89
2017-10-24T06:07:20.208Z,10.89
2017-10-24T06:08:29.834Z,10.89
2017-10-24T06:09:39.265Z,10.90
2017-10-24T06:10:49.276Z,10.89
2017-10-24T06:11:58.741Z,10.90
2017-10-24T06:13:07.758Z,10.89
2017-10-24T06:14:17.370Z,10.90
2017-10-24T06:15:26.781Z,10.92
2017-10-24T06:16:36.857Z,10.92
2017-10-24T06:17:45.876Z,10.93
2017-10-24T06:18:55.375Z,10.93
2017-10-24T06:20:04.934Z,10.94
2017-10-24T06:21:14.465Z,10.94
2017-10-24T06:22:24.813Z,10.94
2017-10-24T06:23:34.448Z,10.97
2017-10-24T06:24:43.003Z,10.98
2017-10-24T06:25:53.714Z,10.97
2017-10-24T06:27:02.231Z,10.98
2017-10-24T06:28:11.714Z,11.00
2017-10-24T06:29:21.107Z,11.02
2017-10-24T06:30:30.622Z,11.02
2017-10-24T06:31:40.138Z,11.02
2017-10-24T06:32:50.152Z,11.01
2017-10-24T06:33:59.274Z,11.03
2017-10-24T06:35:08.986Z,11.05
2017-10-24T06:36:18.259Z,11.06
2017-10-24T06:37:27.763Z,11.07
2017-10-24T06:38:37.321Z,11.10
2017-10-24T06:39:46.839Z,11.11
2017-10-24T06:40:56.347Z,11.13
2017-10-24T06:42:05.894Z,11.13
2017-10-24T06:43:15.410Z,11.17
2017-10-24T06:44:24.977Z,11.18
2017-10-24T06:45:34.527Z,11.19
2017-10-24T06:46:44.034Z,11.22
2017-10-24T06:47:53.530Z,11.23
2017-10-24T06:49:03.060Z,11.26
2017-10-24T06:50:12.640Z,11.26
2017-10-24T06:51:22.154Z,11.27
2017-10-24T06:52:31.763Z,11.28
2017-10-24T06:53:41.189Z,11.31
2017-10-24T06:54:50.762Z,11.31
2017-10-24T06:56:00.280Z,11.32
2017-10-24T06:57:09.805Z,11.34
2017-10-24T06:58:19.340Z,11.35
2017-10-24T06:59:28.973Z,11.38
2017-10-24T07:00:38.432Z,11.36
2017-10-24T07:01:48.031Z,11.39
2017-10-24T07:02:57.564Z,11.42
2017-10-24T07:04:07.017Z,11.44
2017-10-24T07:05:16.582Z,11.43
2017-10-24T07:06:26.154Z,11.44
2017-10-24T07:07:35.633Z,11.47
2017-10-24T07:08:45.289Z,11.51
2017-10-24T07:09:55.001Z,11.53
2017-10-24T07:11:04.279Z,11.56
2017-10-24T07:12:13.981Z,11.60
2017-10-24T07:13:24.361Z,11.60
2017-10-24T07:14:32.920Z,11.64
2017-10-24T07:15:42.519Z,11.65
2017-10-24T07:16:52.104Z,11.68
2017-10-24T07:18:01.567Z,11.65
2017-10-24T07:19:11.190Z,11.68
2017-10-24T07:20:20.824Z,11.68
2017-10-24T07:21:30.257Z,11.68
2017-10-24T07:22:39.783Z,11.68
2017-10-24T07:23:49.324Z,11.65
2017-10-24T07:24:58.949Z,11.64
2017-10-24T07:26:08.447Z,11.60
2017-10-24T07:27:18.083Z,11.60
2017-10-24T07:28:27.537Z,11.60
2017-10-24T07:29:37.071Z,11.60
2017-10-24T07:30:46.700Z,11.60
2017-10-24T07:31:56.169Z,11.60
2017-10-24T07:33:05.712Z,11.60
2017-10-24T07:34:15.295Z,11.61
2017-10-24T07:35:24.822Z,11.61
2017-10-24T07:36:34.385Z,11.63
2017-10-24T07:37:44.062Z,11.64
2017-10-24T07:38:53.593Z,11.67
2017-10-24T07:40:03.046Z,11.68
2017-10-24T07:41:12.601Z,11.68
2017-10-24T07:42:22.208Z,11.68
2017-10-24T07:43:31.686Z,11.71
2017-10-24T07:44:41.272Z,11.69
2017-10-24T07:45:50.878Z,11.69
2017-10-24T07:47:00.619Z,11.73
2017-10-24T07:48:09.968Z,11.76
2017-10-24T07:49:19.496Z,11.76
2017-10-24T07:50:28.995Z,11.77
2017-10-24T07:51:38.578Z,11.81
2017-10-24T07:52:48.190Z,11.84
2017-10-24T07:53:57.660Z,11.84
2017-10-24T07:55:07.231Z,11.82
2017-10-24T07:56:16.778Z,11.84
2017-10-24T07:57:26.417Z,11.84
2017-10-24T07:58:35.947Z,11.84
2017-10-24T07:59:45.429Z,11.81
2017-10-24T08:00:55.006Z,11.80
2017-10-24T08:02:04.565Z,11.80
2017-10-24T08:03:14.088Z,11.80
2017-10-24T08:04:23.697Z,11.80
2017-10-24T08:05:33.191Z,11.80
2017-10-24T08:06:42.943Z,11.81
2017-10-24T08:07:52.398Z,11.81
2017-10-24T08:09:01.921Z,11.80
2017-10-24T08:10:11.404Z,11.80
2017-10-24T08:11:20.954Z,11.79
2017-10-24T08:12:30.529Z,11.81
2017-10-24T08:13:40.144Z,11.85
2017-10-24T08:14:49.753Z,11.89
2017-10-24T08:15:59.160Z,11.90
2017-10-24T08:17:08.856Z,11.94
2017-10-24T08:18:18.371Z,11.98
2017-10-24T08:19:28.210Z,11.97
2017-10-24T08:20:37.431Z,11.92
2017-10-24T08:21:46.963Z,11.93
2017-10-24T08:22:56.555Z,11.92
2017-10-24T08:24:06.101Z,11.96
2017-10-24T08:25:15.833Z,12.00
2017-10-24T08:26:25.301Z,12.03
2017-10-24T08:27:34.816Z,12.07
2017-10-24T08:28:44.453Z,12.11
2017-10-24T08:29:53.935Z,12.14
2017-10-24T08:31:03.511Z,12.14
2017-10-24T08:32:13.145Z,12.18
2017-10-24T08:33:22.680Z,12.21
2017-10-24T08:34:32.236Z,12.22
2017-10-24T08:35:41.839Z,12.22
2017-10-24T08:36:51.368Z,12.26
2017-10-24T08:38:01.468Z,12.26
2017-10-24T08:39:10.532Z,12.26
2017-10-24T08:40:20.168Z,12.30
2017-10-24T08:41:29.674Z,12.34
2017-10-24T08:42:39.276Z,12.35
2017-10-24T08:43:48.844Z,12.39
2017-10-24T08:44:58.570Z,12.44
2017-10-24T08:46:08.023Z,12.48
2017-10-24T08:47:17.581Z,12.52
2017-10-24T08:48:27.177Z,12.52
2017-10-24T08:49:36.817Z,12.52
2017-10-24T08:50:46.326Z,12.52
2017-10-24T08:51:55.981Z,12.52
2017-10-24T08:53:05.518Z,12.55
2017-10-24T08:54:15.086Z,12.57
2017-10-24T08:55:24.671Z,12.63
2017-10-24T08:56:34.270Z,12.68
2017-10-24T08:57:43.944Z,12.69
2017-10-24T08:58:53.432Z,12.67
2017-10-24T09:00:03.014Z,12.65
2017-10-24T09:01:12.634Z,12.63
2017-10-24T09:02:22.195Z,12.61
2017-10-24T09:03:31.827Z,12.60
2017-10-24T09:04:41.431Z,12.60
2017-10-24T09:05:50.968Z,12.63
2017-10-24T09:07:00.557Z,12.64
2017-10-24T09:08:10.242Z,12.69
2017-10-24T09:09:19.757Z,12.69
2017-10-24T09:10:29.389Z,12.68
2017-10-24T09:11:38.923Z,12.67
2017-10-24T09:12:48.524Z,12.65
2017-10-24T09:13:58.189Z,12.65
2017-10-24T09:15:07.716Z,12.68
2017-10-24T09:16:17.276Z,12.75
2017-10-24T09:17:26.880Z,12.84
2017-10-24T09:18:36.474Z,12.94
2017-10-24T09:19:46.145Z,13.06
2017-10-24T09:20:55.647Z,13.22
2017-10-24T09:22:05.253Z,13.30
2017-10-24T09:23:15.200Z,13.39
2017-10-24T09:24:24.472Z,13.46
2017-10-24T09:25:34.104Z,13.55
2017-10-24T09:26:43.696Z,13.67
2017-10-24T09:27:53.335Z,13.72
2017-10-24T09:29:02.931Z,13.67
2017-10-24T09:30:12.637Z,13.72
2017-10-24T09:31:22.177Z,13.60
2017-10-24T09:32:31.802Z,13.71
2017-10-24T09:33:41.461Z,13.72
2017-10-24T09:34:51.069Z,13.72
2017-10-24T09:36:00.702Z,13.79
2017-10-24T09:37:10.332Z,13.79
2017-10-24T09:38:19.969Z,13.86
2017-10-24T09:39:29.597Z,13.84
2017-10-24T09:40:39.232Z,13.81
2017-10-24T09:41:48.863Z,13.71
2017-10-24T09:42:58.512Z,13.64
2017-10-24T09:44:08.129Z,13.56
2017-10-24T09:45:17.835Z,13.56
2017-10-24T09:46:27.391Z,13.63
2017-10-24T09:47:36.989Z,13.61
2017-10-24T09:48:46.636Z,13.60
2017-10-24T09:49:56.237Z,13.52
2017-10-24T09:51:05.926Z,13.48
2017-10-24T09:52:15.556Z,13.48
2017-10-24T09:53:25.138Z,13.50
2017-10-24T09:54:34.822Z,13.43
2017-10-24T09:55:44.397Z,13.42
2017-10-24T09:56:53.985Z,13.43
2017-10-24T09:58:03.811Z,13.39
2017-10-24T09:59:13.224Z,13.43
2017-10-24T10:00:22.848Z,13.47
2017-10-24T10:01:32.594Z,13.56
2017-10-24T10:02:42.091Z,13.60
2017-10-24T10:03:51.744Z,13.64
2017-10-24T10:05:01.345Z,13.64
2017-10-24T10:06:10.986Z,13.63
2017-10-24T10:07:20.684Z,13.56
2017-10-24T10:08:30.332Z,13.51
2017-10-24T10:09:39.846Z,13.43
2017-10-24T10:10:49.484Z,13.46
2017-10-24T10:11:59.195Z,13.51
2017-10-24T10:13:08.928Z,13.57
2017-10-24T10:14:18.644Z,13.56
2017-10-24T10:15:27.960Z,13.56
2017-10-24T10:16:37.643Z,13.57
2017-10-24T10:17:48.367Z,13.60
2017-10-24T10:18:57.320Z,13.64
2017-10-24T10:20:06.469Z,13.64
2017-10-24T10:21:16.105Z,13.64
2017-10-24T10:22:25.807Z,13.68
2017-10-24T10:23:35.460Z,13.75
2017-10-24T10:24:45.074Z,13.81
2017-10-24T10:25:54.663Z,13.81
2017-10-24T10:27:04.338Z,13.75
2017-10-24T10:28:13.994Z,13.72
2017-10-24T10:29:23.602Z,13.76
2017-10-24T10:30:34.163Z,13.69
2017-10-24T10:31:42.773Z,13.64
2017-10-24T10:32:52.406Z,13.63
2017-10-24T10:34:02.061Z,13.63
2017-10-24T10:35:12.181Z,13.68
2017-10-24T10:36:21.464Z,13.68
2017-10-24T10:37:30.937Z,13.76
2017-10-24T10:38:40.583Z,13.89
2017-10-24T10:39:50.787Z,14.02
2017-10-24T10:40:59.830Z,14.10
2017-10-24T10:42:10.594Z,14.11
2017-10-24T10:43:19.629Z,14.14
2017-10-24T10:44:28.727Z,14.15
2017-10-24T10:45:38.365Z,14.25
2017-10-24T10:46:48.096Z,14.23
2017-10-24T10:47:57.729Z,14.22
2017-10-24T10:49:07.382Z,14.21
2017-10-24T10:50:17.069Z,14.23
2017-10-24T10:51:27.139Z,14.27
2017-10-24T10:52:36.262Z,14.25
2017-10-24T10:53:45.912Z,14.28
2017-10-24T10:54:55.545Z,14.26
2017-10-24T10:56:05.189Z,14.28
2017-10-24T10:57:14.892Z,14.34
2017-10-24T10:58:24.789Z,14.36
2017-10-24T10:59:34.162Z,14.47
2017-10-24T11:00:43.896Z,14.52
2017-10-24T11:01:53.530Z,14.52
2017-10-24T11:03:03.109Z,14.53
2017-10-24T11:04:12.811Z,14.69
2017-10-24T11:05:22.530Z,14.77
2017-10-24T11:06:32.090Z,14.82
2017-10-24T11:07:41.794Z,14.93
2017-10-24T11:08:52.991Z,14.98
2017-10-24T11:10:01.238Z,14.92
2017-10-24T11:11:10.801Z,14.80
2017-10-24T11:12:21.043Z,14.69
2017-10-24T11:13:30.932Z,14.52
2017-10-24T11:14:40.614Z,14.60
2017-10-24T11:15:49.532Z,14.59
2017-10-24T11:16:59.165Z,14.59
2017-10-24T11:18:08.768Z,14.55
2017-10-24T11:19:18.458Z,14.56
2017-10-24T11:20:28.676Z,14.57
2017-10-24T11:21:37.752Z,14.56
2017-10-24T11:22:47.908Z,14.61
2017-10-24T11:23:57.099Z,14.61
2017-10-24T11:25:06.875Z,14.64
2017-10-24T11:26:16.507Z,14.57
2017-10-24T11:27:26.067Z,14.60
2017-10-24T11:28:36.749Z,14.59
2017-10-24T11:29:45.432Z,14.60
2017-10-24T11:30:55.067Z,14.56
2017-10-24T11:32:04.726Z,14.51
2017-10-24T11:33:14.383Z,14.43
2017-10-24T11:34:24.082Z,14.38
2017-10-24T11:35:33.696Z,14.31
2017-10-24T11:36:43.432Z,14.32
2017-10-24T11:37:53.001Z,14.36
2017-10-24T11:39:02.715Z,14.36
2017-10-24T11:40:12.407Z,14.35
2017-10-24T11:41:21.969Z,14.36
2017-10-24T11:42:32.288Z,14.32
2017-10-24T11:43:41.516Z,14.31
2017-10-24T11:44:50.939Z,14.28
2017-10-24T11:46:00.602Z,14.27
2017-10-24T11:47:10.333Z,14.32
2017-10-24T11:48:19.913Z,14.32
2017-10-24T11:49:29.616Z,14.38
2017-10-24T11:50:39.238Z,14.46
2017-10-24T11:51:48.940Z,14.46
2017-10-24T11:52:58.507Z,14.47
2017-10-24T11:54:08.417Z,14.52
2017-10-24T11:55:17.826Z,14.56
2017-10-24T11:56:27.500Z,14.64
2017-10-24T11:57:37.233Z,14.67
2017-10-24T11:58:46.851Z,14.64
2017-10-24T11:59:56.474Z,14.68
2017-10-24T12:01:06.141Z,14.63
2017-10-24T12:02:15.870Z,14.57
2017-10-24T12:03:26.029Z,14.52
2017-10-24T12:04:35.150Z,14.47
2017-10-24T12:05:44.796Z,14.46
2017-10-24T12:06:54.503Z,14.46
2017-10-24T12:08:04.103Z,14.44
2017-10-24T12:09:13.783Z,14.43
2017-10-24T12:10:23.911Z,14.43
2017-10-24T12:11:33.076Z,14.40
2017-10-24T12:12:42.729Z,14.39
2017-10-24T12:13:52.417Z,14.42
2017-10-24T12:15:02.047Z,14.46
2017-10-24T12:16:11.769Z,14.46
2017-10-24T12:17:21.364Z,14.47
2017-10-24T12:18:31.048Z,14.50
2017-10-24T12:19:40.681Z,14.50
2017-10-24T12:20:50.337Z,14.53
2017-10-24T12:21:59.988Z,14.63
2017-10-24T12:23:09.669Z,14.68
2017-10-24T12:24:19.418Z,14.72
2017-10-24T12:25:28.984Z,14.72
2017-10-24T12:26:38.670Z,14.81
2017-10-24T12:27:48.489Z,14.85
2017-10-24T12:28:58.001Z,14.84
2017-10-24T12:30:07.640Z,14.88
2017-10-24T12:31:17.817Z,14.92
2017-10-24T12:32:26.999Z,14.92
2017-10-24T12:33:36.789Z,14.93
2017-10-24T12:34:46.482Z,14.94
2017-10-24T12:35:56.054Z,14.92
2017-10-24T12:37:05.783Z,14.93
2017-10-24T12:38:15.363Z,14.93
2017-10-24T12:39:25.057Z,14.94
2017-10-24T12:40:35.697Z,15.06
2017-10-24T12:41:44.407Z,15.07
2017-10-24T12:42:54.148Z,15.09
2017-10-24T12:44:03.792Z,15.07
2017-10-24T12:45:13.511Z,15.05
2017-10-24T12:46:23.223Z,15.02
2017-10-24T12:47:32.777Z,15.00
2017-10-24T12:48:42.458Z,14.96
2017-10-24T12:49:52.674Z,14.96
2017-10-24T12:51:01.883Z,14.93
2017-10-24T12:52:11.514Z,15.02
2017-10-24T12:53:21.146Z,15.06
2017-10-24T12:54:30.896Z,15.10
2017-10-24T12:55:41.027Z,15.06
2017-10-24T12:56:50.175Z,15.06
2017-10-24T12:58:00.356Z,15.15
2017-10-24T12:59:09.633Z,15.31
2017-10-24T13:00:19.220Z,15.50
2017-10-24T13:01:29.909Z,15.61
2017-10-24T13:02:38.606Z,15.67
2017-10-24T13:03:48.332Z,15.65
2017-10-24T13:04:58.088Z,15.59
2017-10-24T13:06:07.725Z,15.56
2017-10-24T13:07:17.387Z,16.30
2017-10-24T13:08:27.091Z,16.96
2017-10-24T13:09:36.841Z,16.71
2017-10-24T13:10:46.463Z,16.42
2017-10-24T13:11:56.278Z,16.18
2017-10-24T13:13:05.843Z,15.96
2017-10-24T13:14:15.745Z,15.81
2017-10-24T13:15:25.736Z,15.68
2017-10-24T13:16:34.945Z,15.61
2017-10-24T13:17:44.629Z,15.53
2017-10-24T13:18:54.329Z,15.52
2017-10-24T13:20:04.062Z,15.56
2017-10-24T13:21:13.767Z,15.60
2017-10-24T13:22:24.938Z,15.60
2017-10-24T13:23:33.416Z,15.65
2017-10-24T13:24:43.055Z,15.72
2017-10-24T13:25:53.134Z,15.85
2017-10-24T13:27:02.751Z,15.93
2017-10-24T13:28:11.979Z,15.94
2017-10-24T13:29:21.694Z,16.01
2017-10-24T13:30:31.435Z,16.03
2017-10-24T13:31:41.768Z,15.98
2017-10-24T13:32:51.503Z,15.97
2017-10-24T13:34:00.650Z,15.97
2017-10-24T13:35:10.683Z,16.00
2017-10-24T13:36:20.122Z,16.04
2017-10-24T13:37:29.869Z,16.12
2017-10-24T13:38:40.618Z,16.22
2017-10-24T13:39:49.947Z,16.29
2017-10-24T13:40:59.368Z,16.37
2017-10-24T13:42:08.903Z,16.32
2017-10-24T13:43:18.649Z,16.32
2017-10-24T13:44:28.399Z,16.39
2017-10-24T13:45:38.190Z,16.50
2017-10-24T13:46:47.912Z,16.55
2017-10-24T13:47:58.266Z,16.62
2017-10-24T13:49:07.514Z,16.51
2017-10-24T13:50:17.263Z,16.47
2017-10-24T13:51:27.057Z,16.54
2017-10-24T13:52:36.837Z,16.59
2017-10-24T13:53:46.639Z,16.62
2017-10-24T13:54:56.465Z,16.72
2017-10-24T13:56:06.281Z,16.72
2017-10-24T13:57:16.077Z,16.73
2017-10-24T13:58:25.914Z,16.71
2017-10-24T13:59:35.746Z,16.63
2017-10-24T14:00:45.516Z,16.60
2017-10-24T14:01:55.342Z,16.57
2017-10-24T14:03:05.127Z,16.57
2017-10-24T14:04:15.917Z,16.50
2017-10-24T14:05:24.730Z,16.46
2017-10-24T14:06:35.019Z,16.47
2017-10-24T14:07:44.303Z,16.45
2017-10-24T14:08:54.652Z,16.45
2017-10-24T14:10:03.951Z,16.45
2017-10-24T14:11:13.765Z,16.48
2017-10-24T14:12:23.448Z,16.50
2017-10-24T14:13:33.697Z,16.51
2017-10-24T14:14:42.964Z,16.54
2017-10-24T14:15:52.868Z,16.53
2017-10-24T14:17:03.220Z,16.57
2017-10-24T14:18:12.918Z,16.60
2017-10-24T14:19:22.067Z,16.60
2017-10-24T14:20:32.812Z,16.62
2017-10-24T14:21:41.659Z,16.67
2017-10-24T14:22:51.378Z,16.70
2017-10-24T14:24:01.156Z,16.79
2017-10-24T14:25:10.951Z,16.87
2017-10-24T14:26:20.783Z,16.90
2017-10-24T14:27:30.508Z,16.90
2017-10-24T14:28:40.842Z,16.92
2017-10-24T14:29:50.552Z,16.85
2017-10-24T14:31:00.009Z,16.75
2017-10-24T14:32:10.036Z,16.65
2017-10-24T14:33:19.406Z,16.57
2017-10-24T14:34:29.151Z,16.48
2017-10-24T14:35:38.974Z,16.45
2017-10-24T14:36:48.811Z,16.46
2017-10-24T14:37:58.562Z,16.45
2017-10-24T14:39:08.280Z,16.42
2017-10-24T14:40:17.992Z,16.36
2017-10-24T14:41:27.748Z,16.38
2017-10-24T14:42:37.773Z,16.37
2017-10-24T14:43:47.387Z,16.36
2017-10-24T14:44:57.019Z,16.38
2017-10-24T14:46:06.900Z,16.45
2017-10-24T14:47:16.563Z,16.44
2017-10-24T14:48:26.817Z,16.39
2017-10-24T14:49:36.236Z,16.37
2017-10-24T14:50:45.898Z,16.28
2017-10-24T14:51:55.654Z,16.19
2017-10-24T14:53:05.337Z,16.13
2017-10-24T14:54:15.057Z,16.12
2017-10-24T14:55:25.048Z,16.09
2017-10-24T14:56:35.539Z,16.03
2017-10-24T14:57:44.824Z,15.98
2017-10-24T14:58:54.047Z,15.94
2017-10-24T15:00:03.821Z,15.93
2017-10-24T15:01:13.622Z,15.90